Etusivu
METAR-TAF:

METAR-TAF

Lentoasemat :

Kuwaitin kansainvälinen lentoasema

Kuwait, Kuwait

Leveyspiiri: 29-13N, Pituuspiiri: 047-59E, korkeus merenpinnasta: 55 m

Tämänhetkinen sää

Tämä raportti tehtiin 10 minuuttia sitten, kello 17.00 UTC
Tuuli 5 kn etelästä
Lämpötila 31°C
Kosteus 19%
Ilmanpaine 1008 hPa
Näkyvyys 10 km tai enemmän
ei pilviä alle 1500 m:ssä eikä cumulonimbus-pilviä

METAR: OKBK 201700Z 18005KT CAVOK 31/05 Q1008 NOSIG

Aika: 20:10 (17:10 UTC)

Sääennuste

Tämä raportti tehtiin 6 tuntia ja 25 minuuttia sitten, kello 10.45 UTC
Ennuste voimassa 20. päivästä klo 12 UTC - 21. päivään klo 18 UTC
Tuuli 3 kn eri suunnista
Näkyvyys 10 km tai enemmän
ei pilviä alle 1500 m:ssä eikä cumulonimbus-pilviä
Ajoittain
20. päivästä klo 12 UTC - 20. päivään klo 24 UTC
Tuuli 10 kn pohjoisesta

TAF: OKBK 201045Z 2012/2118 VRB03KT CAVOK TEMPO 2012/2024 35010KT

Säähavainnot ja -ennusteet yli 4000 lentoasemalta (METAR- ja TAF-raportit).

Käytössä olevat sääasemat on merkitty karttaan keltaisilla ja punaisilla pisteillä.

Aseta hiiri pisteen päälle nähdäksesi sääaseman nimen.

Klikkaa sitten nähdäksesi säähavainnot ja -ennusteet.

Kartan vaihtaminen: klikkaa mustalla rastilla varustettuja vihreitä pisteitä, niin voit zoomata sisään; viivalla varustettua vihreää pistettä, niin voit zoomata ulos tai vihreitä nuolia, niin pääset viereisille kartoille.


METAR-TAF: